Red Wing, Minnesota
Current Conditions -  °F | °C
As of 4:51 PM on Saturday 20 Dec 2014 (Local Time) from KRGK Reporting Station
Haze Haze  
Wind Chill: -3°   Ceiling: 1900
Heat Index:   Visibility: 5mi
Dew Point: -2°   Wind: 6mph
Humidity: 87%   Direction: 160°SSE
Pressure: 30.14"   Gusts: NA
Location:  44.57°N, 92.53°W
Report Text: KRGK 202251Z AUTO 16005KT 5SM BR SCT012 OVC019 00/M02 A3014 RMK AO2
Loading
Personal Weather Stations






























Interactive Weather Map New forecast layout! Learn more

10-Day Weather Forecast

Advertisements
Track Severe Weather on mobile